Terminal Aerodrome Forecast
Issued by NWS

Home | Current Version | Previous Version | Text Only | Print | Product List | Glossary On
Versions: 1 2 3 4 5 6 7 8 9 10 11 12 13
741
FTUS45 KRIW 191729
TAFRKS
TAF
KRKS 191729Z 1918/2018 28014G22KT P6SM -SHRA SCT025 BKN040
      TEMPO 1918/1920 5SM -SHRA BKN013
     FM192100 27022G32KT P6SM VCSH SCT030 BKN045
     FM200200 27015KT P6SM SCT050 BKN070
     FM200600 26010KT P6SM SCT070 SCT200
     FM201600 23012G19KT P6SM SCT060 SCT200=

USA.gov is the U.S. government's official web portal to all federal, state and local government web resources and services.